createdAt,value
2019-05-06T00:01:09.241Z,32.13
2019-05-06T00:03:39.660Z,36.73
2019-05-06T00:06:10.041Z,20.33
2019-05-06T00:08:40.551Z,23.03
2019-05-06T00:11:10.831Z,31.47
2019-05-06T00:13:41.312Z,33.50
2019-05-06T00:16:14.200Z,24.07
2019-05-06T00:18:44.862Z,24.47
2019-05-06T00:21:15.409Z,21.87
2019-05-06T00:23:50.952Z,24.80
2019-05-06T00:26:36.186Z,28.40
2019-05-06T00:29:14.296Z,29.70
2019-05-06T00:31:44.653Z,35.30
2019-05-06T00:34:14.917Z,29.60
2019-05-06T00:36:45.247Z,24.40
2019-05-06T00:39:31.161Z,20.87
2019-05-06T00:42:09.664Z,28.33
2019-05-06T00:44:40.175Z,32.97
2019-05-06T00:47:10.503Z,28.43
2019-05-06T00:49:43.593Z,26.33
2019-05-06T00:52:14.091Z,25.57
2019-05-06T00:54:44.421Z,35.10
2019-05-06T00:57:14.858Z,26.70
2019-05-06T00:59:53.839Z,38.53
2019-05-06T01:02:34.276Z,28.03
2019-05-06T01:05:05.915Z,28.83
2019-05-06T01:07:45.492Z,31.50
2019-05-06T01:10:17.031Z,34.97
2019-05-06T01:13:14.459Z,26.50
2019-05-06T01:15:45.415Z,39.17
2019-05-06T01:18:17.371Z,20.30
2019-05-06T01:20:47.861Z,37.97
2019-05-06T01:23:18.305Z,30.30
2019-05-06T01:25:48.638Z,31.87
2019-05-06T01:28:18.920Z,19.47
2019-05-06T01:30:49.230Z,21.57
2019-05-06T01:33:19.585Z,40.47
2019-05-06T01:35:50.091Z,29.03
2019-05-06T01:38:25.965Z,20.93
2019-05-06T01:41:27.606Z,29.43
2019-05-06T01:44:04.386Z,21.47
2019-05-06T01:46:36.901Z,27.47
2019-05-06T01:49:07.726Z,24.17
2019-05-06T01:51:38.676Z,20.03
2019-05-06T01:54:09.351Z,27.23
2019-05-06T01:56:41.772Z,26.17
2019-05-06T01:59:13.967Z,24.00
2019-05-06T02:01:56.889Z,26.03
2019-05-06T02:04:17.578Z,34.10
2019-05-06T02:06:54.505Z,29.33
2019-05-06T02:09:31.610Z,31.67
2019-05-06T02:12:04.361Z,35.60
2019-05-06T02:14:35.995Z,33.93
2019-05-06T02:17:07.006Z,22.37
2019-05-06T02:19:38.455Z,23.60
2019-05-06T02:22:18.306Z,28.47
2019-05-06T02:24:56.281Z,27.37
2019-05-06T02:27:27.583Z,17.30
2019-05-06T02:30:08.674Z,23.60
2019-05-06T02:33:01.305Z,18.77
2019-05-06T02:35:51.551Z,19.90
2019-05-06T02:38:32.579Z,23.47
2019-05-06T02:40:57.811Z,23.80
2019-05-06T02:43:30.380Z,25.10
2019-05-06T02:46:03.975Z,46.40
2019-05-06T02:48:57.986Z,25.93
2019-05-06T02:51:33.369Z,30.93
2019-05-06T02:54:03.571Z,28.50
2019-05-06T02:56:34.449Z,19.50
2019-05-06T02:59:05.651Z,22.47
2019-05-06T03:01:36.218Z,23.00
2019-05-06T03:04:06.702Z,33.77
2019-05-06T03:06:37.542Z,25.27
2019-05-06T03:09:13.413Z,32.13
2019-05-06T03:11:44.422Z,28.43
2019-05-06T03:14:15.280Z,36.37
2019-05-06T03:16:45.785Z,21.73
2019-05-06T03:19:16.743Z,27.37
2019-05-06T03:21:59.124Z,22.77
2019-05-06T03:24:55.158Z,23.97
2019-05-06T03:27:25.924Z,29.33
2019-05-06T03:29:56.613Z,33.17
2019-05-06T03:32:30.621Z,33.23
2019-05-06T03:35:19.240Z,32.97
2019-05-06T03:37:33.488Z,31.23
2019-05-06T03:40:04.938Z,30.27
2019-05-06T03:42:35.829Z,33.87
2019-05-06T03:45:14.773Z,38.47
2019-05-06T03:47:54.367Z,30.90
2019-05-06T03:50:27.125Z,41.17
2019-05-06T03:52:58.916Z,29.70
2019-05-06T03:55:30.607Z,33.10
2019-05-06T03:58:04.120Z,36.63
2019-05-06T04:00:38.242Z,30.27
2019-05-06T04:03:09.033Z,35.07
2019-05-06T04:05:39.773Z,34.13
2019-05-06T04:08:26.500Z,24.47
2019-05-06T04:10:58.066Z,26.43
2019-05-06T04:13:29.632Z,37.43
2019-05-06T04:16:35.136Z,26.17
2019-05-06T04:19:16.679Z,36.77
2019-05-06T04:21:59.074Z,34.97
2019-05-06T04:24:43.075Z,26.77
2019-05-06T04:27:58.895Z,24.20
2019-05-06T04:30:33.424Z,26.70
2019-05-06T04:33:04.859Z,23.07
2019-05-06T04:35:36.132Z,24.10
2019-05-06T04:38:07.345Z,23.30
2019-05-06T04:40:39.371Z,33.33
2019-05-06T04:43:13.069Z,25.17
2019-05-06T04:45:43.719Z,24.50
2019-05-06T04:48:15.502Z,27.43
2019-05-06T04:50:46.682Z,29.43
2019-05-06T04:53:17.817Z,23.67
2019-05-06T04:55:54.003Z,26.90
2019-05-06T04:58:25.157Z,23.30
2019-05-06T05:00:57.940Z,26.60
2019-05-06T05:03:29.477Z,32.67
2019-05-06T05:06:04.989Z,27.30
2019-05-06T05:08:39.132Z,24.97
2019-05-06T05:11:45.539Z,30.73
2019-05-06T05:14:42.304Z,27.37
2019-05-06T05:17:34.531Z,27.83
2019-05-06T05:20:12.559Z,26.57
2019-05-06T05:22:43.378Z,29.77
2019-05-06T05:25:16.876Z,27.00
2019-05-06T05:27:49.008Z,20.43
2019-05-06T05:30:32.703Z,29.27
2019-05-06T05:33:04.217Z,30.67
2019-05-06T05:35:36.358Z,18.50
2019-05-06T05:38:08.995Z,29.00
2019-05-06T05:40:42.828Z,24.13
2019-05-06T05:43:27.975Z,20.83
2019-05-06T05:46:00.022Z,24.03
2019-05-06T05:48:44.627Z,22.73
2019-05-06T05:51:16.988Z,25.83
2019-05-06T05:53:53.466Z,17.27
2019-05-06T05:56:26.329Z,18.17
2019-05-06T05:58:58.520Z,29.80
2019-05-06T06:01:32.565Z,27.47
2019-05-06T06:04:24.268Z,17.40
2019-05-06T06:06:55.588Z,19.47
2019-05-06T06:09:32.745Z,27.87
2019-05-06T06:12:07.106Z,16.53
2019-05-06T06:15:02.254Z,23.73
2019-05-06T06:18:04.963Z,22.90
2019-05-06T06:21:17.956Z,21.30
2019-05-06T06:23:41.994Z,14.10
2019-05-06T06:26:15.202Z,23.27
2019-05-06T06:28:47.352Z,28.73
2019-05-06T06:31:26.421Z,13.63
2019-05-06T06:34:05.953Z,17.73
2019-05-06T06:36:52.622Z,20.63
2019-05-06T06:39:36.082Z,16.57
2019-05-06T06:42:09.863Z,17.07
2019-05-06T06:44:43.034Z,17.60
2019-05-06T06:47:14.822Z,14.67
2019-05-06T06:49:53.664Z,25.00
2019-05-06T06:52:25.453Z,12.97
2019-05-06T06:54:58.312Z,14.80
2019-05-06T06:57:43.917Z,16.27
2019-05-06T07:00:33.083Z,20.33
2019-05-06T07:03:16.617Z,17.40
2019-05-06T07:06:05.412Z,13.07
2019-05-06T07:09:38.884Z,12.93
2019-05-06T07:12:13.256Z,11.57
2019-05-06T07:14:45.630Z,10.10
2019-05-06T07:17:19.170Z,15.23
2019-05-06T07:19:55.678Z,17.07
2019-05-06T07:22:37.072Z,20.60
2019-05-06T07:25:12.684Z,12.47
2019-05-06T07:27:45.798Z,9.80
2019-05-06T07:30:37.023Z,14.33
2019-05-06T07:33:27.732Z,12.27
2019-05-06T07:36:02.176Z,17.33
2019-05-06T07:38:34.867Z,20.20
2019-05-06T07:41:14.824Z,16.67
2019-05-06T07:43:53.952Z,15.30
2019-05-06T07:46:43.754Z,23.90
2019-05-06T07:49:25.042Z,20.13
2019-05-06T07:52:02.881Z,13.30
2019-05-06T07:54:46.339Z,11.53
2019-05-06T07:57:22.106Z,20.60
2019-05-06T07:59:57.164Z,15.17
2019-05-06T08:02:29.343Z,13.67
2019-05-06T08:05:02.581Z,22.47
2019-05-06T08:07:55.735Z,12.70
2019-05-06T08:10:29.723Z,13.57
2019-05-06T08:13:13.109Z,15.30
2019-05-06T08:15:49.531Z,15.87
2019-05-06T08:18:22.032Z,16.63
2019-05-06T08:20:54.257Z,14.60
2019-05-06T08:23:42.931Z,14.07
2019-05-06T08:26:33.168Z,16.37
2019-05-06T08:29:05.953Z,16.53
2019-05-06T08:31:39.222Z,16.00
2019-05-06T08:34:14.214Z,19.37
2019-05-06T08:37:09.383Z,14.77
2019-05-06T08:40:26.529Z,20.37
2019-05-06T08:43:06.617Z,19.30
2019-05-06T08:48:29.313Z,16.00
2019-05-06T08:51:22.628Z,11.73
2019-05-06T08:57:18.349Z,19.87
2019-05-06T08:59:53.526Z,15.27
2019-05-06T09:02:27.155Z,15.33
2019-05-06T09:05:00.054Z,14.10
2019-05-06T09:07:33.132Z,15.00
2019-05-06T09:10:18.987Z,16.33
2019-05-06T09:12:52.564Z,14.53
2019-05-06T09:15:25.228Z,14.17
2019-05-06T09:18:16.598Z,14.53
2019-05-06T09:21:02.978Z,14.47
2019-05-06T09:23:45.860Z,15.70
2019-05-06T09:26:33.530Z,12.47
2019-05-06T09:29:23.086Z,10.90
2019-05-06T09:31:58.219Z,10.47
2019-05-06T09:34:46.983Z,11.67
2019-05-06T09:37:23.565Z,9.67
2019-05-06T09:39:57.311Z,11.47
2019-05-06T09:42:51.938Z,15.33
2019-05-06T09:45:24.052Z,13.80
2019-05-06T09:48:13.760Z,16.10
2019-05-06T09:50:58.839Z,17.23
2019-05-06T09:53:56.318Z,10.67
2019-05-06T09:57:22.467Z,12.27
2019-05-06T10:00:07.579Z,15.37
2019-05-06T10:02:43.390Z,11.97
2019-05-06T10:05:30.743Z,7.83
2019-05-06T10:08:05.524Z,12.57
2019-05-06T10:10:55.275Z,9.53
2019-05-06T10:13:14.428Z,11.27
2019-05-06T10:15:47.544Z,9.80
2019-05-06T10:18:40.697Z,9.23
2019-05-06T10:21:13.570Z,9.70
2019-05-06T10:24:07.798Z,10.87
2019-05-06T10:26:47.669Z,17.33
2019-05-06T10:29:26.104Z,14.13
2019-05-06T10:32:08.055Z,10.37
2019-05-06T10:34:40.179Z,15.67
2019-05-06T10:37:25.934Z,13.07
2019-05-06T10:40:25.730Z,11.73
2019-05-06T10:43:34.054Z,17.13
2019-05-06T10:46:08.697Z,9.37
2019-05-06T10:48:53.053Z,18.23
2019-05-06T10:51:36.475Z,14.00
2019-05-06T10:54:12.178Z,12.97
2019-05-06T10:56:57.363Z,17.07
2019-05-06T10:59:32.711Z,13.67
2019-05-06T11:02:23.494Z,19.90
2019-05-06T11:05:02.909Z,12.90
2019-05-06T11:07:52.321Z,14.90
2019-05-06T11:10:38.082Z,8.17
2019-05-06T11:13:15.158Z,9.33
2019-05-06T11:15:48.160Z,10.07
2019-05-06T11:18:27.739Z,8.70
2019-05-06T11:21:03.415Z,8.20
2019-05-06T11:23:47.444Z,7.90
2019-05-06T11:26:27.871Z,10.60
2019-05-06T11:29:21.313Z,7.60
2019-05-06T11:32:02.827Z,9.27
2019-05-06T11:34:58.045Z,7.50
2019-05-06T11:37:59.599Z,9.33
2019-05-06T11:40:33.096Z,12.43
2019-05-06T11:43:08.380Z,6.33
2019-05-06T11:45:43.885Z,8.13
2019-05-06T11:48:15.535Z,9.97
2019-05-06T11:50:48.950Z,13.97
2019-05-06T11:53:27.689Z,11.37
2019-05-06T11:55:55.247Z,11.03
2019-05-06T11:58:58.414Z,6.70
2019-05-06T12:01:45.593Z,10.73
2019-05-06T12:04:16.400Z,15.37
2019-05-06T12:06:48.380Z,7.33
2019-05-06T12:09:22.232Z,10.67
2019-05-06T12:12:27.900Z,9.07
2019-05-06T12:14:59.366Z,11.23
2019-05-06T12:17:48.714Z,6.07
2019-05-06T12:20:24.485Z,9.47
2019-05-06T12:22:58.778Z,7.60
2019-05-06T12:25:36.391Z,10.60
2019-05-06T12:28:32.696Z,9.90
2019-05-06T12:31:19.729Z,5.20
2019-05-06T12:33:58.495Z,6.37
2019-05-06T12:36:32.792Z,12.33
2019-05-06T12:39:29.451Z,11.10
2019-05-06T12:42:29.621Z,12.53
2019-05-06T12:45:34.880Z,8.47
2019-05-06T12:48:39.394Z,6.43
2019-05-06T12:51:13.314Z,10.13
2019-05-06T12:54:19.393Z,10.40
2019-05-06T12:56:58.246Z,6.10
2019-05-06T12:59:30.521Z,6.73
2019-05-06T13:02:03.425Z,8.20
2019-05-06T13:04:51.454Z,5.47
2019-05-06T13:07:20.974Z,5.70
2019-05-06T13:09:54.350Z,8.07
2019-05-06T13:12:28.614Z,8.67
2019-05-06T13:15:03.293Z,8.17
2019-05-06T13:17:34.434Z,9.13
2019-05-06T13:20:14.146Z,9.33
2019-05-06T13:22:53.480Z,8.20
2019-05-06T13:25:35.488Z,9.60
2019-05-06T13:28:10.040Z,7.63
2019-05-06T13:30:43.413Z,6.70
2019-05-06T13:34:04.642Z,5.23
2019-05-06T13:36:39.340Z,5.40
2019-05-06T13:39:14.878Z,10.27
2019-05-06T13:41:46.563Z,6.57
2019-05-06T13:44:22.727Z,7.13
2019-05-06T13:46:57.595Z,10.73
2019-05-06T13:49:44.328Z,7.13
2019-05-06T13:52:22.768Z,9.73
2019-05-06T13:55:06.352Z,5.80
2019-05-06T13:57:39.702Z,12.33
2019-05-06T14:00:16.731Z,10.17
2019-05-06T14:02:54.306Z,8.60
2019-05-06T14:05:33.655Z,9.47
2019-05-06T14:08:05.806Z,10.73
2019-05-06T14:10:43.072Z,6.80
2019-05-06T14:13:16.277Z,15.63
2019-05-06T14:15:53.567Z,11.53
2019-05-06T14:18:33.058Z,9.07
2019-05-06T14:21:03.935Z,11.00
2019-05-06T14:23:37.865Z,6.80
2019-05-06T14:26:24.791Z,8.87
2019-05-06T14:29:24.953Z,10.47
2019-05-06T14:32:00.370Z,13.80
2019-05-06T14:34:33.456Z,11.30
2019-05-06T14:37:06.079Z,12.40
2019-05-06T14:39:49.931Z,11.43
2019-05-06T14:42:16.185Z,10.83
2019-05-06T14:44:48.881Z,12.93
2019-05-06T14:50:30.237Z,14.13
2019-05-06T14:52:55.090Z,11.20
2019-05-06T14:55:32.776Z,16.53
2019-05-06T14:58:08.342Z,10.97
2019-05-06T15:00:42.578Z,12.63
2019-05-06T15:03:22.044Z,11.33
2019-05-06T15:05:56.551Z,9.53
2019-05-06T15:08:33.219Z,12.33
2019-05-06T15:11:05.927Z,13.93
2019-05-06T15:13:37.305Z,10.00
2019-05-06T15:16:13.201Z,14.17
2019-05-06T15:18:45.670Z,13.57
2019-05-06T15:21:37.179Z,15.70
2019-05-06T15:24:21.056Z,15.27
2019-05-06T15:26:52.181Z,13.97
2019-05-06T15:29:24.782Z,17.60
2019-05-06T15:32:17.789Z,13.27
2019-05-06T15:35:08.457Z,16.67
2019-05-06T15:37:53.444Z,8.27
2019-05-06T15:40:33.067Z,8.63
2019-05-06T15:43:23.014Z,16.83
2019-05-06T15:46:12.238Z,9.07
2019-05-06T15:48:44.086Z,13.23
2019-05-06T15:51:22.239Z,14.73
2019-05-06T15:53:58.386Z,16.47
2019-05-06T15:56:32.757Z,9.87
2019-05-06T15:59:04.185Z,11.93
2019-05-06T16:01:38.811Z,12.77
2019-05-06T16:04:22.710Z,13.90
2019-05-06T16:06:55.171Z,15.40
2019-05-06T16:09:28.036Z,18.03
2019-05-06T16:12:02.754Z,11.70
2019-05-06T16:14:37.423Z,14.13
2019-05-06T16:17:15.031Z,12.90
2019-05-06T16:19:46.422Z,12.53
2019-05-06T16:22:17.548Z,14.97
2019-05-06T16:24:55.464Z,12.80
2019-05-06T16:27:28.250Z,12.30
2019-05-06T16:30:03.591Z,17.70
2019-05-06T16:32:38.175Z,15.40
2019-05-06T16:35:11.938Z,16.53
2019-05-06T16:37:56.875Z,21.93
2019-05-06T16:40:39.105Z,15.90
2019-05-06T16:43:13.747Z,23.70
2019-05-06T16:45:53.137Z,21.27
2019-05-06T16:48:31.561Z,26.90
2019-05-06T16:51:04.757Z,26.83
2019-05-06T16:53:46.171Z,37.00
2019-05-06T16:56:38.343Z,28.03
2019-05-06T16:59:47.561Z,27.57
2019-05-06T17:02:26.712Z,29.07
2019-05-06T17:05:22.477Z,26.60
2019-05-06T17:08:02.800Z,32.23
2019-05-06T17:10:58.102Z,29.10
2019-05-06T17:13:37.725Z,32.43
2019-05-06T17:16:17.952Z,30.33
2019-05-06T17:19:00.310Z,32.30
2019-05-06T17:21:33.226Z,31.23
2019-05-06T17:24:12.852Z,31.77
2019-05-06T17:30:42.779Z,29.57
2019-05-06T17:33:36.371Z,30.07
2019-05-06T17:36:13.534Z,34.93
2019-05-06T17:38:53.728Z,26.77
2019-05-06T17:41:44.859Z,39.83
2019-05-06T17:44:12.046Z,31.23
2019-05-06T17:47:12.446Z,34.57
2019-05-06T17:49:45.010Z,38.90
2019-05-06T17:52:25.730Z,47.43
2019-05-06T17:54:57.071Z,45.03
2019-05-06T17:57:33.247Z,42.83
2019-05-06T18:00:22.502Z,37.23
2019-05-06T18:03:04.656Z,35.57
2019-05-06T18:05:44.901Z,28.27
2019-05-06T18:08:24.514Z,32.20
2019-05-06T18:10:57.063Z,28.83
2019-05-06T18:14:16.157Z,24.13
2019-05-06T18:16:56.576Z,23.83
2019-05-06T18:19:30.050Z,23.67
2019-05-06T18:22:10.162Z,25.40
2019-05-06T18:24:48.064Z,25.07
2019-05-06T18:27:26.275Z,25.07
2019-05-06T18:30:12.291Z,21.57
2019-05-06T18:32:49.197Z,28.63
2019-05-06T18:35:35.102Z,28.30
2019-05-06T18:38:15.771Z,22.47
2019-05-06T18:40:52.902Z,27.60
2019-05-06T18:43:26.214Z,29.80
2019-05-06T18:45:58.646Z,28.77
2019-05-06T18:48:48.844Z,29.93
2019-05-06T18:51:43.539Z,32.57
2019-05-06T18:54:26.312Z,27.63
2019-05-06T18:57:05.125Z,28.07
2019-05-06T19:00:35.377Z,33.43
2019-05-06T19:03:17.013Z,26.50
2019-05-06T19:05:53.045Z,27.50
2019-05-06T19:08:43.045Z,25.90
2019-05-06T19:11:16.980Z,25.93
2019-05-06T19:13:48.548Z,26.63
2019-05-06T19:16:22.210Z,24.60
2019-05-06T19:18:58.148Z,26.87
2019-05-06T19:21:31.914Z,29.33
2019-05-06T19:24:03.326Z,30.03
2019-05-06T19:26:38.312Z,29.43
2019-05-06T19:29:54.322Z,27.20
2019-05-06T19:32:25.148Z,23.10
2019-05-06T19:35:02.528Z,29.27
2019-05-06T19:37:34.523Z,25.40
2019-05-06T19:40:09.468Z,29.50
2019-05-06T19:43:13.534Z,26.30
2019-05-06T19:45:47.097Z,27.03
2019-05-06T19:48:24.702Z,25.30
2019-05-06T19:51:03.334Z,26.53
2019-05-06T19:53:37.179Z,25.50
2019-05-06T19:56:09.378Z,25.80
2019-05-06T19:58:46.042Z,24.67
2019-05-06T20:01:17.471Z,27.30
2019-05-06T20:03:48.686Z,21.67
2019-05-06T20:06:41.937Z,26.03
2019-05-06T20:09:46.241Z,30.20
2019-05-06T20:12:37.644Z,24.17
2019-05-06T20:15:27.261Z,25.80
2019-05-06T20:18:02.877Z,28.47
2019-05-06T20:20:35.338Z,29.87
2019-05-06T20:23:09.138Z,36.93
2019-05-06T20:25:42.628Z,39.00
2019-05-06T20:28:14.887Z,47.93
2019-05-06T20:30:47.660Z,40.77
2019-05-06T20:33:22.035Z,43.70
2019-05-06T20:35:56.012Z,45.67
2019-05-06T20:38:27.613Z,49.33
2019-05-06T20:40:58.817Z,48.03
2019-05-06T20:43:29.811Z,50.47
2019-05-06T20:46:02.748Z,53.50
2019-05-06T20:48:33.874Z,58.80
2019-05-06T20:51:05.237Z,63.77
2019-05-06T20:53:37.526Z,57.37
2019-05-06T20:56:09.036Z,61.53
2019-05-06T20:58:41.834Z,64.77
2019-05-06T21:01:29.360Z,65.80
2019-05-06T21:04:03.476Z,60.73
2019-05-06T21:06:35.577Z,66.73
2019-05-06T21:09:09.231Z,68.90
2019-05-06T21:11:42.097Z,67.70
2019-05-06T21:14:17.848Z,64.57
2019-05-06T21:16:49.948Z,68.10
2019-05-06T21:19:22.220Z,68.83
2019-05-06T21:21:56.933Z,60.50
2019-05-06T21:24:32.225Z,67.97
2019-05-06T21:27:03.346Z,58.30
2019-05-06T21:29:35.421Z,65.93
2019-05-06T21:32:06.761Z,72.93
2019-05-06T21:34:43.097Z,68.97
2019-05-06T21:37:13.522Z,63.20
2019-05-06T21:39:44.162Z,63.77
2019-05-06T21:42:16.705Z,66.30
2019-05-06T21:44:49.441Z,60.97
2019-05-06T21:47:20.052Z,65.47
2019-05-06T21:49:56.704Z,68.10
2019-05-06T21:52:38.899Z,69.90
2019-05-06T21:55:02.586Z,72.57
2019-05-06T21:57:36.788Z,69.60
2019-05-06T22:00:12.653Z,69.67
2019-05-06T22:02:46.302Z,69.73
2019-05-06T22:05:17.893Z,61.50
2019-05-06T22:07:52.573Z,60.93
2019-05-06T22:10:25.093Z,55.57
2019-05-06T22:12:56.428Z,60.80
2019-05-06T22:15:27.403Z,66.73
2019-05-06T22:17:58.406Z,61.23
2019-05-06T22:20:29.233Z,67.73
2019-05-06T22:23:00.082Z,61.03
2019-05-06T22:25:34.238Z,61.97
2019-05-06T22:28:12.411Z,60.00
2019-05-06T22:30:44.969Z,62.27
2019-05-06T22:33:18.661Z,51.17
2019-05-06T22:35:49.664Z,60.73
2019-05-06T22:38:24.091Z,56.73
2019-05-06T22:40:54.861Z,52.80
2019-05-06T22:43:25.948Z,51.97
2019-05-06T22:45:56.667Z,51.00
2019-05-06T22:48:27.552Z,54.10
2019-05-06T22:50:58.642Z,51.47
2019-05-06T22:53:32.847Z,54.00
2019-05-06T22:56:06.462Z,51.13
2019-05-06T22:58:37.227Z,56.87
2019-05-06T23:01:20.236Z,52.07
2019-05-06T23:03:52.642Z,55.00
2019-05-06T23:06:23.471Z,54.50
2019-05-06T23:08:54.963Z,55.70
2019-05-06T23:11:26.173Z,52.80
2019-05-06T23:13:58.492Z,54.20
2019-05-06T23:16:29.642Z,54.30
2019-05-06T23:19:02.116Z,59.23
2019-05-06T23:21:33.670Z,61.73
2019-05-06T23:24:04.653Z,56.53
2019-05-06T23:26:35.566Z,57.93
2019-05-06T23:29:12.952Z,66.80
2019-05-06T23:31:44.296Z,64.30
2019-05-06T23:34:15.602Z,62.47
2019-05-06T23:37:22.955Z,69.87
2019-05-06T23:40:38.056Z,71.07
2019-05-06T23:43:43.993Z,61.97
2019-05-06T23:46:52.915Z,68.73
2019-05-06T23:49:59.040Z,67.97
2019-05-06T23:53:05.568Z,65.23
2019-05-06T23:56:13.144Z,70.73
2019-05-06T23:58:44.227Z,66.33
